Time;durP1;ratioP1;P1;durP2;ratioP2;P2;SDS_P1;SDS_P2;PMS_P1;PMS_P2;Temp;Humidity;BMP_temperature;BMP_pressure;BME280_temperature;BME280_humidity;BME280_pressure;Samples;Min_cycle;Max_cycle;Signal;HPM_P1;HPM_P2
2023/05/16 00:00:39;;;;;;;18.90;4.90;;;;;;;23.07;34.44;99253.41;105670;1253;68543;-72
2023/05/16 00:03:10;;;;;;;5.10;3.70;;;;;;;23.26;34.11;99248.59;105763;1260;73487;-78
2023/05/16 00:05:38;;;;;;;7.40;4.10;;;;;;;23.26;34.18;99243.40;105708;1253;62115;-73
2023/05/16 00:08:05;;;;;;;5.30;4.00;;;;;;;23.08;34.48;99244.77;105667;1253;63060;-73
2023/05/16 00:10:32;;;;;;;4.80;3.40;;;;;;;22.95;34.59;99243.33;106023;1256;75011;-73
2023/05/16 00:13:00;;;;;;;4.50;3.70;;;;;;;22.95;34.64;99245.48;105856;1253;70202;-73
2023/05/16 00:15:28;;;;;;;;;;;;;;;23.00;34.43;99243.79;105902;1253;72606;-73
2023/05/16 00:17:58;;;;;;;5.80;4.30;;;;;;;22.77;34.76;99236.89;105867;1253;62043;-72
2023/05/16 00:20:26;;;;;;;4.70;3.60;;;;;;;22.76;34.70;99243.66;105918;1253;62167;-73
2023/05/16 00:22:54;;;;;;;4.60;4.10;;;;;;;22.58;34.84;99242.01;105895;1253;74814;-74
2023/05/16 00:25:21;;;;;;;5.00;4.00;;;;;;;22.69;34.72;99235.14;105852;1258;68747;-72
2023/05/16 00:27:48;;;;;;;5.20;4.10;;;;;;;22.77;34.64;99237.29;105838;1256;72009;-73
2023/05/16 00:30:15;;;;;;;5.30;4.40;;;;;;;22.94;34.45;99239.30;106005;1254;63195;-74
2023/05/16 00:32:43;;;;;;;;;;;;;;;23.00;34.28;99241.14;105991;1255;62067;-73
2023/05/16 00:35:11;;;;;;;6.70;3.90;;;;;;;22.87;34.56;99241.98;105935;1257;75288;-73
2023/05/16 00:37:38;;;;;;;6.50;4.10;;;;;;;22.91;34.28;99238.71;106096;1254;67764;-72
2023/05/16 00:40:06;;;;;;;4.10;3.70;;;;;;;18.98;39.88;99223.80;105879;1254;72395;-73
2023/05/16 00:42:33;;;;;;;7.10;4.30;;;;;;;16.81;44.27;99212.73;105851;1254;62207;-74
2023/05/16 00:45:00;;;;;;;6.70;4.10;;;;;;;18.28;42.29;99218.09;105782;1254;62076;-72
2023/05/16 00:47:28;;;;;;;4.50;3.70;;;;;;;16.65;44.99;99204.81;106063;1256;76060;-71
2023/05/16 00:49:55;;;;;;;6.50;4.20;;;;;;;17.25;44.57;99201.11;105906;1254;68460;-71
2023/05/16 00:52:23;;;;;;;6.40;3.80;;;;;;;18.60;41.86;99204.05;106113;1252;72710;-72
2023/05/16 00:54:51;;;;;;;4.60;3.70;;;;;;;18.97;40.95;99207.02;106050;1253;62116;-72
2023/05/16 00:57:18;;;;;;;5.20;4.60;;;;;;;19.25;40.34;99203.70;106066;1252;63114;-70
2023/05/16 00:59:45;;;;;;;7.50;4.10;;;;;;;19.47;39.96;99198.45;105921;1256;74780;-73
2023/05/16 01:02:13;;;;;;;5.30;3.70;;;;;;;19.61;39.69;99199.98;105393;1263;69552;-70
2023/05/16 01:04:40;;;;;;;4.80;3.40;;;;;;;19.67;39.48;99193.11;105865;1256;72301;-74
2023/05/16 01:07:08;;;;;;;4.80;3.60;;;;;;;19.87;38.93;99181.92;106114;1256;63375;-72
2023/05/16 01:09:35;;;;;;;7.30;4.10;;;;;;;19.49;39.44;99181.30;105802;1253;62140;-72
2023/05/16 01:12:24;;;;;;;5.40;3.80;;;;;;;16.56;44.81;99160.74;105926;1253;75622;-71
2023/05/16 01:14:58;;;;;;;11.20;4.80;;;;;;;16.71;45.45;99160.32;105797;1253;68654;-72
2023/05/16 01:17:46;;;;;;;7.70;4.40;;;;;;;17.09;44.14;99161.76;105782;1259;73759;-72
2023/05/16 01:20:32;;;;;;;4.20;3.60;;;;;;;16.22;46.41;99153.06;106029;1253;62067;-73
2023/05/16 01:23:18;;;;;;;6.70;4.60;;;;;;;16.13;46.94;99150.53;106035;1256;62059;-72
2023/05/16 01:25:52;;;;;;;4.20;3.80;;;;;;;16.11;47.30;99145.77;105688;1253;76312;-71
2023/05/16 01:28:19;;;;;;;6.80;3.70;;;;;;;16.07;47.54;99141.05;105878;1253;68678;-73
2023/05/16 01:30:46;;;;;;;7.50;4.30;;;;;;;16.04;47.66;99141.16;105936;1256;73761;-72
2023/05/16 01:33:13;;;;;;;7.50;4.50;;;;;;;16.00;48.10;99140.55;105943;1253;62124;-74
2023/05/16 01:35:46;;;;;;;7.10;4.20;;;;;;;15.95;48.51;99140.70;106009;1257;62008;-73
2023/05/16 01:38:22;;;;;;;4.50;3.80;;;;;;;16.06;48.67;99144.91;105954;1255;75527;-76
2023/05/16 01:41:20;;;;;;;4.00;3.50;;;;;;;16.39;48.10;99146.45;105836;1254;70015;-73
2023/05/16 01:43:50;;;;;;;7.60;4.10;;;;;;;16.95;46.15;99156.33;105809;1253;71313;-73
2023/05/16 01:46:28;;;;;;;6.40;4.20;;;;;;;17.81;44.21;99159.45;105973;1253;62055;-75
2023/05/16 01:49:15;;;;;;;5.10;4.20;;;;;;;16.88;45.93;99160.68;105939;1259;63160;-73
2023/05/16 01:51:50;;;;;;;6.40;4.60;;;;;;;15.93;49.43;99152.95;105884;1259;73658;-71
2023/05/16 01:54:18;;;;;;;5.70;3.70;;;;;;;15.80;50.53;99149.84;105982;1253;68898;-73
2023/05/16 01:56:51;;;;;;;5.40;4.40;;;;;;;15.70;50.85;99149.73;105884;1253;73658;-74
2023/05/16 01:59:19;;;;;;;5.40;4.20;;;;;;;15.89;50.61;99149.49;105917;1253;62489;-75
2023/05/16 02:01:47;;;;;;;10.50;4.60;;;;;;;15.72;51.42;99146.41;105898;1253;62058;-71
2023/05/16 02:04:14;;;;;;;6.50;4.60;;;;;;;15.66;52.09;99140.86;105843;1253;73380;-73
2023/05/16 02:06:41;;;;;;;9.10;4.40;;;;;;;15.69;52.16;99139.09;105686;1253;67917;-71
2023/05/16 02:09:08;;;;;;;4.50;4.10;;;;;;;16.97;48.43;99145.60;106086;1256;73022;-73
2023/05/16 02:11:39;;;;;;;9.00;4.60;;;;;;;18.32;43.97;99154.45;105987;1253;62082;-72
2023/05/16 02:14:06;;;;;;;6.40;4.50;;;;;;;18.85;42.81;99158.43;105952;1257;62150;-71
2023/05/16 02:16:33;;;;;;;7.40;4.60;;;;;;;18.96;42.25;99157.50;105964;1253;76505;-71
2023/05/16 02:19:00;;;;;;;7.40;4.30;;;;;;;19.12;41.87;99152.05;105819;1256;68210;-73
2023/05/16 02:21:27;;;;;;;7.70;4.50;;;;;;;19.16;41.76;99151.51;105923;1259;72625;-74
2023/05/16 02:23:54;;;;;;;5.10;4.00;;;;;;;19.35;41.52;99149.20;106020;1253;62212;-75
2023/05/16 02:26:21;;;;;;;17.90;6.20;;;;;;;19.32;41.41;99143.23;105826;1262;62153;-72
2023/05/16 02:28:48;;;;;;;11.50;4.70;;;;;;;19.54;41.23;99143.98;105888;1253;73470;-72
2023/05/16 02:31:32;;;;;;;10.90;4.60;;;;;;;19.79;40.78;99144.78;105922;1253;68895;-75
2023/05/16 02:33:59;;;;;;;16.00;5.60;;;;;;;19.81;40.45;99138.98;106193;1255;73510;-72
2023/05/16 02:36:26;;;;;;;9.40;4.80;;;;;;;19.95;40.30;99140.38;106042;1253;62581;-74
2023/05/16 02:38:53;;;;;;;7.70;4.40;;;;;;;19.95;40.24;99141.08;105545;1253;62767;-73
2023/05/16 02:41:21;;;;;;;;;;;;;;;20.01;40.06;99136.89;105615;1261;76014;-72
2023/05/16 02:43:48;;;;;;;4.70;4.00;;;;;;;20.11;39.73;99135.66;105662;1253;68893;-73
2023/05/16 02:46:23;;;;;;;10.00;4.70;;;;;;;20.21;39.65;99131.41;105898;1253;72048;-72
2023/05/16 02:48:50;;;;;;;9.00;4.60;;;;;;;20.33;39.23;99126.52;105757;1259;62026;-73
2023/05/16 02:51:19;;;;;;;6.70;4.70;;;;;;;20.32;39.18;99135.13;105704;1254;62139;-73
2023/05/16 02:53:46;;;;;;;;;;;;;;;20.14;39.49;99137.58;105701;1257;75359;-71
2023/05/16 02:56:13;;;;;;;7.40;3.90;;;;;;;20.10;39.57;99140.06;106079;1253;68808;-71
2023/05/16 02:58:40;;;;;;;15.80;5.50;;;;;;;20.26;39.49;99141.18;106057;1253;72646;-71
2023/05/16 03:01:08;;;;;;;6.00;4.80;;;;;;;20.54;39.17;99144.30;106024;1255;62490;-71
2023/05/16 03:03:37;;;;;;;11.30;4.80;;;;;;;20.16;39.58;99143.43;106011;1253;62439;-73
2023/05/16 03:06:05;;;;;;;9.90;4.50;;;;;;;20.36;39.38;99148.33;105767;1253;74504;-71
2023/05/16 03:08:32;;;;;;;6.60;4.50;;;;;;;20.39;39.22;99148.45;105990;1253;68697;-74
2023/05/16 03:11:00;;;;;;;5.30;4.30;;;;;;;20.39;39.26;99154.26;105746;1253;73409;-73
2023/05/16 03:13:28;;;;;;;6.60;4.70;;;;;;;20.53;39.19;99157.14;105901;1253;63111;-73
2023/05/16 03:15:58;;;;;;;6.30;4.60;;;;;;;20.61;39.04;99164.46;105904;1253;62149;-74
2023/05/16 03:18:25;;;;;;;9.80;5.70;;;;;;;20.56;39.11;99165.73;105806;1259;76490;-73
2023/05/16 03:20:52;;;;;;;7.30;4.90;;;;;;;20.42;39.39;99167.05;105771;1259;68543;-74
2023/05/16 03:23:19;;;;;;;9.30;3.80;;;;;;;20.39;39.41;99172.61;105648;1259;71802;-73
2023/05/16 03:25:46;;;;;;;5.70;4.60;;;;;;;20.38;39.49;99178.02;105764;1257;62143;-73
2023/05/16 03:28:15;;;;;;;6.50;3.90;;;;;;;20.40;39.53;99176.48;105740;1257;62636;-74
2023/05/16 03:30:42;;;;;;;;;;;;;;;20.46;39.42;99177.17;105861;1260;75541;-74
2023/05/16 03:33:08;;;;;;;8.40;4.30;;;;;;;20.59;39.27;99179.04;105777;1256;66830;-73
2023/05/16 03:35:36;;;;;;;5.80;4.50;;;;;;;20.62;39.17;99178.42;105723;1257;71665;-70
2023/05/16 03:38:03;;;;;;;7.10;3.90;;;;;;;20.56;39.82;99184.62;105550;1257;62072;-76
2023/05/16 03:40:30;;;;;;;6.10;5.00;;;;;;;20.17;40.95;99190.55;105776;1258;62220;-74
2023/05/16 03:42:58;;;;;;;6.50;3.90;;;;;;;20.21;41.58;99191.66;105798;1262;75346;-73
2023/05/16 03:45:25;;;;;;;7.10;5.90;;;;;;;20.18;41.80;99193.55;105548;1259;68453;-72
2023/05/16 03:47:52;;;;;;;9.90;5.10;;;;;;;19.98;42.59;99190.86;105808;1257;72865;-74
2023/05/16 03:50:19;;;;;;;9.80;4.90;;;;;;;20.10;42.83;99196.44;105797;1259;62005;-73
2023/05/16 03:52:46;;;;;;;7.70;5.10;;;;;;;20.12;43.00;99205.95;105757;1259;61963;-74
2023/05/16 03:55:14;;;;;;;8.40;5.10;;;;;;;20.23;42.93;99209.66;105759;1255;75758;-74
2023/05/16 03:57:41;;;;;;;6.00;5.10;;;;;;;20.08;43.04;99200.70;106031;1253;67265;-72
2023/05/16 04:00:10;;;;;;;11.10;4.80;;;;;;;19.97;43.46;99200.10;105976;1257;71709;-75
2023/05/16 04:02:39;;;;;;;7.40;5.60;;;;;;;19.87;43.42;99196.25;105581;1258;62103;-72
2023/05/16 04:05:08;;;;;;;8.20;5.70;;;;;;;19.94;43.58;99204.84;106067;1253;62019;-73
2023/05/16 04:07:36;;;;;;;8.50;5.10;;;;;;;20.28;43.14;99209.77;105765;1261;73694;-72
2023/05/16 04:10:03;;;;;;;11.50;5.90;;;;;;;20.45;42.64;99210.00;106121;1255;68038;-71
2023/05/16 04:12:31;;;;;;;10.50;4.90;;;;;;;20.66;42.26;99212.73;106150;1257;72582;-72
2023/05/16 04:14:58;;;;;;;8.60;4.90;;;;;;;20.74;42.11;99212.13;109457;1253;59673;-72
2023/05/16 04:17:25;;;;;;;6.00;5.00;;;;;;;20.71;42.17;99212.87;109453;1254;60172;-74
2023/05/16 04:19:52;;;;;;;9.80;6.00;;;;;;;20.47;42.70;99211.46;109397;1254;74362;-72
2023/05/16 04:22:26;;;;;;;8.70;5.60;;;;;;;20.58;42.31;99213.65;109558;1253;67681;-70
2023/05/16 04:24:53;;;;;;;7.50;4.80;;;;;;;20.73;41.95;99211.77;109290;1254;71827;-73
2023/05/16 04:27:20;;;;;;;6.70;5.00;;;;;;;20.82;41.89;99212.66;109409;1253;59765;-71
2023/05/16 04:29:47;;;;;;;8.20;5.70;;;;;;;21.04;41.49;99210.39;109519;1253;59786;-72
2023/05/16 04:32:14;;;;;;;12.70;5.70;;;;;;;21.24;41.23;99207.87;109507;1254;73660;-71
2023/05/16 04:34:44;;;;;;;8.10;5.20;;;;;;;21.18;41.29;99201.08;109340;1253;67019;-72
2023/05/16 04:37:10;;;;;;;9.30;5.80;;;;;;;21.12;41.30;99197.91;109280;1252;71221;-73
2023/05/16 04:39:38;;;;;;;8.60;5.50;;;;;;;21.11;41.47;99196.26;109465;1253;59900;-72
2023/05/16 04:42:05;;;;;;;9.10;5.70;;;;;;;21.01;41.60;99199.60;109373;1253;59652;-71
2023/05/16 04:44:31;;;;;;;15.80;6.70;;;;;;;21.34;41.24;99200.92;109498;1253;74698;-72
2023/05/16 04:46:58;;;;;;;17.60;7.00;;;;;;;21.47;40.93;99202.80;109444;1252;67507;-72
2023/05/16 04:49:25;;;;;;;11.20;6.10;;;;;;;21.23;41.07;99203.28;109437;1253;71245;-73
2023/05/16 04:51:52;;;;;;;12.30;6.50;;;;;;;21.28;40.90;99206.36;109406;1253;59624;-72
2023/05/16 04:54:18;;;;;;;16.30;8.60;;;;;;;21.20;40.99;99207.02;109331;1252;60308;-72
2023/05/16 04:56:45;;;;;;;15.10;8.90;;;;;;;21.45;40.86;99209.20;109344;1253;75023;-73
2023/05/16 04:59:12;;;;;;;18.10;8.30;;;;;;;21.57;40.48;99208.10;107575;1253;68452;-73
2023/05/16 05:01:39;;;;;;;15.00;7.00;;;;;;;21.45;40.62;99207.23;106807;1257;71777;-72
2023/05/16 05:04:06;;;;;;;37.50;6.30;;;;;;;21.27;40.76;99206.56;106561;1253;62469;-72
2023/05/16 05:06:34;;;;;;;20.80;6.10;;;;;;;21.31;40.68;99202.98;106129;1257;63209;-74
2023/05/16 05:09:01;;;;;;;8.20;5.50;;;;;;;21.45;40.43;99204.19;106219;1258;75532;-73
2023/05/16 05:11:28;;;;;;;16.80;5.90;;;;;;;21.61;40.29;99202.67;105969;1254;67795;-75
2023/05/16 05:13:55;;;;;;;21.00;5.70;;;;;;;21.57;40.40;99199.91;106119;1257;73595;-73
2023/05/16 05:16:23;;;;;;;16.40;5.20;;;;;;;21.51;40.42;99202.45;106201;1256;62500;-73
2023/05/16 05:18:50;;;;;;;17.60;5.50;;;;;;;21.30;40.73;99196.30;106272;1257;62040;-74
2023/05/16 05:21:19;;;;;;;13.50;4.90;;;;;;;21.34;40.77;99196.91;105934;1262;75346;-73
2023/05/16 05:23:48;;;;;;;20.80;6.70;;;;;;;21.34;40.53;99190.95;106116;1254;69674;-77
2023/05/16 05:26:14;;;;;;;21.70;6.30;;;;;;;21.46;40.43;99195.20;105722;1259;72747;-73
2023/05/16 05:28:42;;;;;;;31.90;7.40;;;;;;;21.55;40.11;99190.45;105932;1254;62039;-70
2023/05/16 05:31:17;;;;;;;23.30;5.90;;;;;;;21.68;40.00;99191.45;105736;1253;62027;-71
2023/05/16 05:33:45;;;;;;;26.20;6.70;;;;;;;21.76;39.89;99197.22;105619;1259;76714;-73
2023/05/16 05:36:12;;;;;;;20.60;5.90;;;;;;;21.90;39.58;99195.25;106071;1254;70063;-71
2023/05/16 05:38:39;;;;;;;13.20;4.60;;;;;;;22.00;39.33;99201.24;106725;1256;72556;-76
2023/05/16 05:41:06;;;;;;;17.20;5.70;;;;;;;21.89;39.36;99208.34;105793;1257;63141;-73
2023/05/16 05:43:35;;;;;;;19.80;6.60;;;;;;;21.92;39.46;99211.17;105866;1257;62117;-77
2023/05/16 05:46:02;;;;;;;17.50;5.80;;;;;;;21.89;39.50;99212.16;105892;1254;75184;-74
2023/05/16 05:48:31;;;;;;;16.40;5.70;;;;;;;22.00;39.20;99219.09;105879;1257;69002;-73
2023/05/16 05:50:58;;;;;;;19.90;6.30;;;;;;;21.78;39.81;99217.02;105857;1253;73468;-74
2023/05/16 05:53:25;;;;;;;10.30;5.30;;;;;;;21.98;39.28;99220.84;105857;1258;62085;-72
2023/05/16 05:55:51;;;;;;;6.50;4.80;;;;;;;22.03;39.02;99215.32;105828;1260;62035;-72
2023/05/16 05:58:20;;;;;;;15.80;5.50;;;;;;;21.75;39.38;99216.20;105719;1257;74777;-71
2023/05/16 06:00:47;;;;;;;19.90;6.10;;;;;;;21.70;39.49;99212.45;105927;1257;66932;-71
2023/05/16 06:03:14;;;;;;;20.50;6.10;;;;;;;21.74;39.50;99211.57;105738;1258;72134;-72
2023/05/16 06:05:41;;;;;;;14.20;6.50;;;;;;;21.67;39.58;99209.52;105978;1254;63087;-73
2023/05/16 06:08:08;;;;;;;9.00;5.40;;;;;;;21.97;39.10;99212.46;106079;1252;62054;-72
2023/05/16 06:10:35;;;;;;;9.00;5.20;;;;;;;21.83;39.00;99210.23;106072;1257;75907;-74
2023/05/16 06:13:02;;;;;;;6.90;4.60;;;;;;;21.70;39.14;99214.24;106061;1256;68560;-74
2023/05/16 06:15:29;;;;;;;14.40;5.20;;;;;;;21.91;38.98;99222.79;105871;1258;71640;-75
2023/05/16 06:17:56;;;;;;;12.60;5.50;;;;;;;22.11;39.05;99222.69;105641;1257;62115;-73
2023/05/16 06:20:23;;;;;;;8.70;5.40;;;;;;;22.29;38.72;99222.13;105855;1257;62010;-71
2023/05/16 06:22:50;;;;;;;13.10;5.60;;;;;;;22.57;38.51;99231.70;105707;1258;76081;-71
2023/05/16 06:25:18;;;;;;;9.50;5.40;;;;;;;22.87;38.01;99234.48;105870;1254;68757;-72
2023/05/16 06:27:46;;;;;;;9.70;5.30;;;;;;;22.89;37.85;99233.27;106010;1257;73150;-71
2023/05/16 06:30:13;;;;;;;9.00;5.30;;;;;;;22.94;37.65;99231.94;105771;1254;62028;-71
2023/05/16 06:32:40;;;;;;;7.10;4.80;;;;;;;23.22;37.56;99232.67;105673;1257;62833;-72
2023/05/16 06:35:08;;;;;;;12.60;4.40;;;;;;;23.46;37.08;99231.27;106181;1256;74879;-72
2023/05/16 06:37:35;;;;;;;7.20;4.10;;;;;;;23.48;36.39;99235.70;106071;1256;69589;-71
2023/05/16 06:40:03;;;;;;;7.90;4.40;;;;;;;23.72;36.30;99242.55;106038;1255;73601;-71
2023/05/16 06:42:31;;;;;;;5.60;4.40;;;;;;;24.08;36.00;99248.39;106093;1256;62374;-72
2023/05/16 06:44:58;;;;;;;11.20;4.80;;;;;;;24.03;35.79;99244.25;105806;1254;63178;-70
2023/05/16 06:47:25;;;;;;;6.90;3.90;;;;;;;24.26;35.08;99248.84;106054;1256;75871;-73
2023/05/16 06:49:52;;;;;;;6.20;4.10;;;;;;;24.05;35.11;99251.66;105637;1257;69590;-73
2023/05/16 06:52:20;;;;;;;9.90;4.30;;;;;;;23.88;35.34;99250.35;106089;1256;73541;-71
2023/05/16 06:54:47;;;;;;;8.10;4.60;;;;;;;24.00;35.36;99248.55;106039;1254;62038;-71
2023/05/16 06:57:15;;;;;;;7.60;4.60;;;;;;;24.60;34.42;99251.44;106081;1257;62117;-72
2023/05/16 06:59:42;;;;;;;10.90;4.40;;;;;;;25.13;33.49;99252.52;105766;1263;75796;-73
2023/05/16 07:02:10;;;;;;;5.90;4.30;;;;;;;25.88;32.93;99254.58;105955;1255;68894;-73
2023/05/16 07:04:37;;;;;;;5.20;4.60;;;;;;;26.51;31.92;99254.16;106054;1256;70429;-73
2023/05/16 07:07:06;;;;;;;18.20;5.60;;;;;;;26.59;31.45;99256.96;106069;1254;62122;-70
2023/05/16 07:09:34;;;;;;;6.90;5.10;;;;;;;26.74;31.40;99250.20;106134;1257;62016;-71
2023/05/16 07:12:02;;;;;;;9.60;4.40;;;;;;;26.48;31.33;99248.66;105760;1260;75627;-73
2023/05/16 07:14:30;;;;;;;5.90;4.40;;;;;;;26.79;31.53;99250.35;106115;1255;69529;-72
2023/05/16 07:16:57;;;;;;;7.50;4.80;;;;;;;26.86;31.23;99246.61;106072;1257;72512;-77
2023/05/16 07:19:24;;;;;;;8.40;3.90;;;;;;;27.22;31.09;99244.59;105933;1257;62130;-71
2023/05/16 07:21:51;;;;;;;9.30;4.00;;;;;;;27.00;30.77;99248.54;105698;1257;63159;-71
2023/05/16 07:24:18;;;;;;;10.20;4.60;;;;;;;26.73;30.27;99245.77;105875;1257;75628;-71
2023/05/16 07:26:46;;;;;;;5.90;4.20;;;;;;;26.40;30.31;99236.80;105885;1257;69529;-70
2023/05/16 07:29:13;;;;;;;10.50;4.20;;;;;;;26.29;30.83;99237.66;105906;1258;72680;-72
2023/05/16 07:31:40;;;;;;;9.50;4.70;;;;;;;25.93;30.99;99236.33;105987;1254;62112;-69
2023/05/16 07:34:09;;;;;;;14.00;4.80;;;;;;;26.05;30.83;99242.25;105905;1256;63203;-71
2023/05/16 07:36:36;;;;;;;9.80;5.90;;;;;;;26.67;31.04;99245.46;105667;1259;76350;-71
2023/05/16 07:39:03;;;;;;;12.20;4.60;;;;;;;26.65;30.32;99246.48;105759;1257;68045;-73
2023/05/16 07:41:30;;;;;;;17.80;9.00;;;;;;;26.03;31.24;99243.14;105970;1255;74060;-72
2023/05/16 07:43:57;;;;;;;14.70;5.20;;;;;;;26.48;30.94;99251.80;105723;1255;62157;-71
2023/05/16 07:46:25;;;;;;;7.80;3.90;;;;;;;26.61;30.78;99252.96;105871;1253;62066;-75
2023/05/16 07:48:52;;;;;;;11.70;6.10;;;;;;;27.02;30.33;99258.80;105826;1257;75615;-73
2023/05/16 07:51:19;;;;;;;8.00;5.10;;;;;;;27.26;30.54;99260.41;105812;1257;67926;-75
2023/05/16 07:53:45;;;;;;;15.40;5.90;;;;;;;26.62;30.36;99263.33;105823;1258;71175;-74
2023/05/16 07:56:12;;;;;;;14.70;4.90;;;;;;;26.12;30.90;99262.34;105809;1257;62152;-72
2023/05/16 07:58:40;;;;;;;11.10;5.20;;;;;;;26.08;31.10;99267.05;105806;1253;62091;-74
2023/05/16 08:01:07;;;;;;;9.60;5.90;;;;;;;26.24;31.15;99265.23;105592;1253;75261;-73
2023/05/16 08:03:35;;;;;;;11.40;6.10;;;;;;;25.73;31.64;99258.29;105729;1257;68824;-72
2023/05/16 08:06:02;;;;;;;12.50;4.50;;;;;;;25.33;32.03;99253.53;105853;1255;73562;-72
2023/05/16 08:08:29;;;;;;;7.40;4.50;;;;;;;25.29;32.26;99257.43;105846;1256;62177;-72
2023/05/16 08:10:56;;;;;;;8.40;4.00;;;;;;;25.65;31.93;99262.81;105881;1255;61999;-72
2023/05/16 08:13:23;;;;;;;10.30;4.00;;;;;;;25.74;31.89;99262.54;105691;1262;75132;-73
2023/05/16 08:15:51;;;;;;;7.00;3.90;;;;;;;25.89;31.77;99268.34;106010;1257;69681;-71
2023/05/16 08:18:18;;;;;;;19.90;5.10;;;;;;;25.87;31.65;99270.19;106074;1257;73144;-74
2023/05/16 08:20:48;;;;;;;12.00;5.20;;;;;;;26.27;31.21;99280.69;106059;1256;62520;-72
2023/05/16 08:23:15;;;;;;;7.10;4.20;;;;;;;25.53;31.87;99277.11;106014;1257;62063;-73
2023/05/16 08:25:42;;;;;;;13.60;5.70;;;;;;;25.70;31.91;99276.75;106081;1254;74591;-72
2023/05/16 08:28:09;;;;;;;9.00;4.50;;;;;;;25.66;32.06;99279.41;106038;1257;68610;-73
2023/05/16 08:30:36;;;;;;;6.40;3.70;;;;;;;25.78;32.07;99283.98;105887;1256;72452;-72
2023/05/16 08:33:05;;;;;;;11.90;6.20;;;;;;;26.17;31.76;99289.05;105801;1253;62066;-72
2023/05/16 08:35:34;;;;;;;9.10;4.70;;;;;;;26.71;31.01;99294.82;106096;1254;62108;-72
2023/05/16 08:38:02;;;;;;;11.30;4.80;;;;;;;26.29;31.62;99296.80;106049;1256;75525;-71
2023/05/16 08:40:30;;;;;;;9.20;5.00;;;;;;;24.21;33.96;99278.27;106080;1256;68745;-72
2023/05/16 08:42:57;;;;;;;10.40;5.10;;;;;;;21.51;37.49;99266.63;106076;1255;72789;-75
2023/05/16 08:45:23;;;;;;;13.60;4.60;;;;;;;19.92;40.84;99260.97;105941;1256;62031;-72
2023/05/16 08:47:51;;;;;;;6.20;4.30;;;;;;;19.72;41.14;99259.90;105609;1254;62130;-71
2023/05/16 08:50:19;;;;;;;17.00;5.60;;;;;;;19.15;42.34;99253.92;105701;1259;75557;-73
2023/05/16 08:52:46;;;;;;;17.00;6.30;;;;;;;20.05;41.55;99255.80;106096;1254;68787;-73
2023/05/16 08:55:13;;;;;;;12.40;5.30;;;;;;;21.52;39.66;99261.48;106118;1257;72763;-72
2023/05/16 08:57:40;;;;;;;18.90;5.90;;;;;;;20.21;42.07;99250.76;105912;1261;62053;-72
2023/05/16 09:00:10;;;;;;;19.60;5.90;;;;;;;20.28;41.84;99250.95;105722;1260;62121;-74
2023/05/16 09:02:39;;;;;;;9.90;4.20;;;;;;;20.64;41.26;99251.04;105558;1262;126516;-75
2023/05/16 09:05:08;;;;;;;9.70;4.30;;;;;;;21.21;39.76;99253.27;105161;1262;68582;-74
2023/05/16 09:07:36;;;;;;;6.20;4.10;;;;;;;21.20;39.86;99252.78;105640;1262;72584;-76
2023/05/16 09:10:05;;;;;;;6.30;4.10;;;;;;;21.87;38.75;99259.01;105663;1257;62095;-72
2023/05/16 09:12:33;;;;;;;9.50;4.40;;;;;;;22.05;38.92;99258.09;105709;1263;61964;-73
2023/05/16 09:15:02;;;;;;;18.90;4.20;;;;;;;22.29;38.53;99265.71;105684;1260;75753;-73
2023/05/16 09:17:35;;;;;;;10.80;4.40;;;;;;;22.46;38.10;99269.02;105715;1265;67118;-75
2023/05/16 09:20:10;;;;;;;14.30;4.90;;;;;;;21.97;38.54;99269.26;105522;1259;72813;-77
2023/05/16 09:22:38;;;;;;;13.30;4.30;;;;;;;20.39;41.42;99260.36;105778;1258;62271;-77
2023/05/16 09:25:05;;;;;;;12.00;4.50;;;;;;;21.82;39.00;99268.11;105741;1257;62097;-72
2023/05/16 09:27:39;;;;;;;9.90;4.50;;;;;;;22.61;38.24;99271.55;105716;1257;74008;-72
2023/05/16 09:30:07;;;;;;;11.40;4.30;;;;;;;23.25;37.10;99276.15;105675;1261;68799;-72
2023/05/16 09:32:34;;;;;;;;;;;;;;;22.79;37.50;99260.86;105654;1259;73614;-73
2023/05/16 09:35:02;;;;;;;10.10;3.70;;;;;;;22.09;38.71;99261.56;105750;1258;62081;-73
2023/05/16 09:37:30;;;;;;;13.10;4.50;;;;;;;22.03;38.97;99265.89;105586;1259;62081;-72
2023/05/16 09:39:57;;;;;;;11.50;4.40;;;;;;;22.84;38.12;99268.77;105842;1257;75549;-71
2023/05/16 09:42:24;;;;;;;8.50;4.30;;;;;;;21.69;39.32;99253.30;105685;1254;68994;-71
2023/05/16 09:44:53;;;;;;;15.10;5.00;;;;;;;21.91;39.59;99252.12;105804;1257;72898;-71
2023/05/16 09:47:20;;;;;;;17.20;5.50;;;;;;;22.39;39.58;99253.78;105840;1259;62192;-72
2023/05/16 09:49:51;;;;;;;7.80;4.30;;;;;;;23.15;38.42;99262.23;105697;1254;62085;-71
2023/05/16 09:52:18;;;;;;;29.90;5.10;;;;;;;23.41;36.92;99259.11;105915;1257;75062;-71
2023/05/16 09:54:45;;;;;;;14.00;4.70;;;;;;;22.55;38.46;99255.11;106065;1254;67761;-70
2023/05/16 09:57:19;;;;;;;9.20;4.10;;;;;;;22.19;38.50;99247.95;105927;1254;73710;-72
2023/05/16 09:59:46;;;;;;;9.10;4.50;;;;;;;22.51;38.63;99245.42;106078;1257;62057;-73
2023/05/16 10:02:13;;;;;;;6.50;4.00;;;;;;;22.74;38.15;99242.89;106053;1258;61986;-72
2023/05/16 10:04:41;;;;;;;8.70;4.30;;;;;;;23.31;37.52;99245.23;106124;1257;75680;-72
2023/05/16 10:07:08;;;;;;;15.60;4.70;;;;;;;22.85;38.65;99246.83;106183;1254;69695;-73
2023/05/16 10:09:35;;;;;;;10.40;3.80;;;;;;;23.12;38.12;99250.33;106019;1256;73021;-72
2023/05/16 10:12:05;;;;;;;12.10;4.50;;;;;;;23.27;37.55;99249.70;105810;1256;63174;-71
2023/05/16 10:14:33;;;;;;;5.90;4.20;;;;;;;23.44;37.17;99257.52;105831;1254;62117;-73
2023/05/16 10:17:00;;;;;;;8.10;3.70;;;;;;;22.08;38.57;99254.39;105715;1254;74497;-72
2023/05/16 10:19:29;;;;;;;8.00;4.50;;;;;;;21.69;39.35;99253.23;105876;1257;70284;-73
2023/05/16 10:22:00;;;;;;;;;;;;;;;20.59;41.41;99247.04;105888;1254;72706;-73
2023/05/16 10:24:39;;;;;;;15.30;5.30;;;;;;;20.55;41.98;99241.27;105831;1254;62038;-74
2023/05/16 10:27:05;;;;;;;8.50;4.30;;;;;;;20.48;42.38;99245.94;105843;1257;61959;-75
2023/05/16 10:29:32;;;;;;;6.60;4.20;;;;;;;21.06;41.81;99249.30;105680;1263;75408;-72
2023/05/16 10:32:20;;;;;;;11.90;5.20;;;;;;;22.27;39.75;99260.42;105845;1257;67421;-72
2023/05/16 10:34:47;;;;;;;12.20;4.50;;;;;;;22.25;38.90;99253.47;105923;1257;70884;-73
2023/05/16 10:37:13;;;;;;;11.00;5.20;;;;;;;22.37;38.73;99257.16;105801;1254;62167;-75
2023/05/16 10:39:41;;;;;;;13.50;4.10;;;;;;;21.66;40.19;99252.67;106044;1254;62056;-74
2023/05/16 10:42:09;;;;;;;11.30;4.60;;;;;;;20.60;42.38;99253.38;106037;1256;75316;-73
2023/05/16 10:44:37;;;;;;;15.90;5.80;;;;;;;20.28;42.92;99261.01;106059;1254;68905;-73
2023/05/16 10:47:04;;;;;;;;;;;;;;;20.07;43.43;99255.70;105803;1258;72630;-74
2023/05/16 10:49:31;;;;;;;11.40;4.50;;;;;;;20.16;43.85;99262.66;105827;1257;62124;-74
2023/05/16 10:52:10;;;;;;;10.30;4.30;;;;;;;20.57;43.11;99262.16;105852;1253;62031;-73
2023/05/16 10:54:39;;;;;;;7.60;4.70;;;;;;;21.16;41.79;99268.42;106060;1254;76231;-73
2023/05/16 10:57:10;;;;;;;7.90;4.70;;;;;;;21.12;41.23;99266.08;106060;1254;68221;-75
2023/05/16 10:59:42;;;;;;;16.30;5.10;;;;;;;20.30;42.61;99267.42;106076;1254;71730;-73
2023/05/16 11:02:32;;;;;;;13.60;5.50;;;;;;;20.65;42.64;99263.65;106064;1256;62075;-72
2023/05/16 11:05:00;;;;;;;10.80;4.80;;;;;;;20.87;42.06;99263.29;105775;1255;63200;-73
2023/05/16 11:07:33;;;;;;;6.60;3.90;;;;;;;21.49;41.41;99265.69;105845;1253;74548;-76
2023/05/16 11:10:10;;;;;;;10.80;4.40;;;;;;;23.01;38.91;99268.59;105851;1254;69208;-73
2023/05/16 11:12:37;;;;;;;10.40;4.60;;;;;;;22.00;40.58;99261.33;105767;1254;72656;-73
2023/05/16 11:15:27;;;;;;;7.40;3.90;;;;;;;22.11;40.33;99259.86;106040;1254;62036;-71
2023/05/16 11:18:08;;;;;;;9.30;4.20;;;;;;;22.17;39.62;99261.47;106058;1256;62066;-75
2023/05/16 11:20:37;;;;;;;9.30;4.60;;;;;;;22.52;40.10;99256.95;105832;1254;74296;-72
2023/05/16 11:23:16;;;;;;;11.80;4.40;;;;;;;22.56;39.13;99265.75;106124;1256;68601;-73
2023/05/16 11:25:57;;;;;;;7.50;3.50;;;;;;;22.41;39.24;99262.37;106117;1254;73768;-71
2023/05/16 11:28:25;;;;;;;8.50;3.90;;;;;;;22.31;39.34;99265.40;106072;1252;62139;-71
2023/05/16 11:30:56;;;;;;;8.50;4.20;;;;;;;22.24;39.41;99266.30;105798;1254;62175;-72